Time;durP1;ratioP1;P1;durP2;ratioP2;P2;SDS_P1;SDS_P2;PMS_P1;PMS_P2;Temp;Humidity;BMP_temperature;BMP_pressure;BME280_temperature;BME280_humidity;BME280_pressure;Samples;Min_cycle;Max_cycle;Signal;HPM_P1;HPM_P2
2022/04/18 00:01:04;;;;;;;1.85;0.60;;;;;;;15.66;32.23;101337.56;5012690;28;20116;-74
2022/04/18 00:03:32;;;;;;;1.02;0.70;;;;;;;15.64;34.08;101331.44;5011492;28;20061;-75
2022/04/18 00:06:01;;;;;;;2.60;0.75;;;;;;;15.64;33.84;101334.06;5012119;28;20089;-75
2022/04/18 00:08:29;;;;;;;1.55;0.98;;;;;;;15.65;31.76;101334.09;5012316;28;20050;-76
2022/04/18 00:10:59;;;;;;;1.52;0.90;;;;;;;15.65;32.36;101323.66;5011566;28;20494;-74
2022/04/18 00:13:28;;;;;;;1.95;0.80;;;;;;;15.65;36.09;101331.47;5012694;28;20053;-73
2022/04/18 00:15:56;;;;;;;2.15;0.60;;;;;;;15.55;34.16;101332.16;5012083;28;20046;-76
2022/04/18 00:18:25;;;;;;;2.70;0.80;;;;;;;15.40;33.48;101316.25;5011839;28;20077;-75
2022/04/18 00:20:53;;;;;;;1.80;0.60;;;;;;;15.36;33.38;101315.28;5011347;28;20129;-75
2022/04/18 00:23:22;;;;;;;1.73;0.60;;;;;;;15.38;32.62;101312.72;5011878;28;20100;-77
2022/04/18 00:25:50;;;;;;;3.97;0.60;;;;;;;15.39;33.07;101315.38;5011833;28;20116;-76
2022/04/18 00:28:20;;;;;;;3.80;0.80;;;;;;;15.39;33.28;101301.44;5011750;28;20054;-76
2022/04/18 00:30:49;;;;;;;1.45;0.73;;;;;;;15.36;33.35;101298.78;5011688;28;20046;-77
2022/04/18 00:33:17;;;;;;;0.70;0.50;;;;;;;15.37;34.16;101300.53;5011690;28;20057;-75
2022/04/18 00:35:46;;;;;;;1.38;0.60;;;;;;;15.39;35.03;101298.81;5011881;28;20073;-74
2022/04/18 00:38:14;;;;;;;0.55;0.52;;;;;;;15.36;33.64;101286.59;5011828;28;20050;-75
2022/04/18 00:40:42;;;;;;;0.70;0.50;;;;;;;15.35;33.29;101292.69;5011527;28;20778;-73
2022/04/18 00:43:11;;;;;;;1.65;0.70;;;;;;;15.34;34.09;101290.03;5011720;28;20060;-74
2022/04/18 00:45:41;;;;;;;1.02;0.52;;;;;;;15.26;33.53;101298.59;4995454;28;20049;-75
2022/04/18 00:48:10;;;;;;;1.25;0.60;;;;;;;15.15;34.36;101301.84;4992941;28;20054;-75
2022/04/18 00:50:40;;;;;;;1.52;0.60;;;;;;;15.06;33.92;101305.16;4991983;28;20050;-73
2022/04/18 00:53:09;;;;;;;1.38;0.73;;;;;;;15.02;34.54;101282.47;4991631;28;20050;-71
2022/04/18 00:55:37;;;;;;;0.80;0.50;;;;;;;15.01;35.55;101291.16;5008047;28;20107;-74
2022/04/18 00:58:07;;;;;;;1.10;0.60;;;;;;;14.98;35.96;101275.44;5011312;28;20128;-75
2022/04/18 01:00:35;;;;;;;1.17;0.60;;;;;;;14.93;36.10;101292.72;5010635;28;20045;-75
2022/04/18 01:03:05;;;;;;;3.13;0.73;;;;;;;14.84;39.28;101283.88;5010738;28;20491;-74
2022/04/18 01:05:34;;;;;;;0.93;0.60;;;;;;;14.82;37.13;101287.28;5011466;28;20046;-73
2022/04/18 01:08:03;;;;;;;1.13;0.68;;;;;;;14.80;36.59;101270.78;5011033;28;20145;-76
2022/04/18 01:10:31;;;;;;;1.20;0.52;;;;;;;14.76;37.67;101261.13;5010230;28;20499;-75
2022/04/18 01:13:00;;;;;;;2.05;0.77;;;;;;;14.66;38.95;101262.69;5010402;28;20471;-75
2022/04/18 01:15:29;;;;;;;1.17;0.52;;;;;;;14.60;39.08;101271.22;5010286;28;20053;-75
2022/04/18 01:17:57;;;;;;;1.67;0.95;;;;;;;14.58;38.98;101274.63;5010334;28;20042;-76
2022/04/18 01:20:34;;;;;;;3.28;0.63;;;;;;;14.57;37.23;101283.31;5010360;28;20088;-75
2022/04/18 01:23:07;;;;;;;1.85;0.73;;;;;;;14.57;36.62;101281.59;5010194;28;20053;-77
2022/04/18 01:31:05;;;;;;;3.20;0.63;;;;;;;14.40;32.98;101295.91;5011832;28;20057;-77
2022/04/18 01:33:34;;;;;;;1.85;0.50;;;;;;;14.38;34.21;101288.06;5010436;28;20053;-76
2022/04/18 01:36:02;;;;;;;1.50;0.82;;;;;;;14.38;35.14;101280.25;5010542;28;20096;-75
2022/04/18 01:38:33;;;;;;;1.52;0.60;;;;;;;14.36;36.07;101263.75;5011156;28;20050;-76
2022/04/18 01:41:01;;;;;;;0.95;0.60;;;;;;;14.35;35.58;101246.34;5014054;28;20287;-75
2022/04/18 01:43:29;;;;;;;0.90;0.52;;;;;;;14.31;35.34;101248.84;5009529;28;20104;-75
2022/04/18 01:45:58;;;;;;;1.30;0.70;;;;;;;14.27;34.96;101247.00;5010540;28;20054;-74
2022/04/18 01:48:26;;;;;;;3.25;0.68;;;;;;;14.25;34.90;101247.00;5009957;28;20046;-74
2022/04/18 01:50:55;;;;;;;1.13;0.50;;;;;;;14.23;35.01;101240.88;5010461;28;20057;-75
2022/04/18 01:53:24;;;;;;;3.92;0.70;;;;;;;14.17;36.12;101235.53;5009899;28;20549;-74
2022/04/18 01:55:54;;;;;;;2.50;0.95;;;;;;;14.13;35.86;101234.59;5009635;28;20052;-74
2022/04/18 01:58:22;;;;;;;2.65;1.10;;;;;;;14.10;36.24;101228.44;5009181;28;20077;-74
2022/04/18 02:00:51;;;;;;;1.77;0.82;;;;;;;14.08;35.79;101225.78;5009583;28;20046;-75
2022/04/18 02:03:19;;;;;;;2.97;1.10;;;;;;;14.04;36.27;101210.94;5009746;28;20506;-77
2022/04/18 02:05:49;;;;;;;1.83;0.68;;;;;;;14.03;34.45;101223.06;5010141;28;20117;-75
2022/04/18 02:08:17;;;;;;;1.25;0.65;;;;;;;14.01;36.24;101210.88;5009086;28;20045;-75
2022/04/18 02:10:46;;;;;;;1.55;0.75;;;;;;;14.00;35.78;101206.53;5009898;28;20124;-75
2022/04/18 02:13:16;;;;;;;1.25;0.65;;;;;;;13.99;35.79;101209.97;5009935;28;20045;-75
2022/04/18 02:15:44;;;;;;;1.40;0.80;;;;;;;13.97;36.70;101202.16;5009546;28;20147;-76
2022/04/18 02:18:13;;;;;;;5.75;0.90;;;;;;;13.93;36.34;101200.31;5009848;28;20104;-74
2022/04/18 02:20:41;;;;;;;2.03;0.90;;;;;;;13.90;36.48;101195.00;5009414;28;20046;-74
2022/04/18 02:23:10;;;;;;;1.73;0.90;;;;;;;13.87;36.80;101194.09;5009844;28;20167;-74
2022/04/18 02:25:38;;;;;;;2.50;0.88;;;;;;;13.74;38.83;101183.41;5010529;28;20144;-75
2022/04/18 02:28:07;;;;;;;1.48;0.68;;;;;;;13.73;39.36;101201.56;5009899;28;20045;-73
2022/04/18 02:30:37;;;;;;;1.90;0.93;;;;;;;13.68;39.47;101200.59;5010005;28;20046;-73
2022/04/18 02:33:06;;;;;;;1.60;0.80;;;;;;;13.65;37.18;101196.16;5010057;28;20057;-76
2022/04/18 02:35:35;;;;;;;0.73;0.60;;;;;;;13.61;37.30;101196.97;5011917;28;20471;-74
2022/04/18 02:38:03;;;;;;;0.90;0.50;;;;;;;13.58;36.76;101187.38;5009583;28;20058;-75
2022/04/18 02:40:32;;;;;;;3.95;0.75;;;;;;;13.57;37.37;101190.78;5008985;28;20050;-76
2022/04/18 02:43:01;;;;;;;4.95;0.93;;;;;;;13.55;37.54;101189.88;5009051;28;20494;-74
2022/04/18 02:45:31;;;;;;;2.00;0.80;;;;;;;13.53;39.23;101186.34;4992014;28;20050;-74
2022/04/18 02:48:02;;;;;;;1.58;0.70;;;;;;;13.48;38.66;101174.09;4989580;28;20050;-75
2022/04/18 02:50:30;;;;;;;3.15;0.80;;;;;;;13.44;38.89;101172.25;4988770;28;20429;-75
2022/04/18 02:52:59;;;;;;;1.52;0.90;;;;;;;13.36;38.97;101165.16;4988763;28;20054;-76
2022/04/18 02:55:28;;;;;;;2.05;0.90;;;;;;;13.33;39.12;101171.97;5003472;28;20057;-75
2022/04/18 02:57:56;;;;;;;4.93;0.80;;;;;;;13.29;39.37;101167.56;5008201;28;20069;-74
2022/04/18 03:00:25;;;;;;;2.88;0.90;;;;;;;13.24;38.88;101162.22;5009062;28;20073;-76
2022/04/18 03:02:53;;;;;;;1.15;0.70;;;;;;;13.20;38.84;101161.25;5007940;28;20100;-76
2022/04/18 03:05:23;;;;;;;5.03;0.82;;;;;;;13.16;39.77;101158.53;5009852;28;20085;-75
2022/04/18 03:07:52;;;;;;;0.80;0.70;;;;;;;13.13;40.28;101164.53;5008775;28;20058;-74
2022/04/18 03:11:02;;;;;;;2.20;0.88;;;;;;;13.08;42.06;101163.56;5008942;28;20054;-76
2022/04/18 03:13:09;;;;;;;1.40;0.57;;;;;;;12.97;38.88;101172.78;5008786;28;20050;-75
2022/04/18 03:15:37;;;;;;;5.65;1.00;;;;;;;12.86;39.03;101172.50;5008761;28;20056;-75
2022/04/18 03:18:06;;;;;;;0.90;0.65;;;;;;;12.71;39.36;101178.16;5008345;28;20111;-75
2022/04/18 03:20:36;;;;;;;1.55;0.77;;;;;;;12.60;42.53;101179.59;5008577;28;20089;-76
2022/04/18 03:23:05;;;;;;;1.20;0.70;;;;;;;12.57;44.24;101171.69;5007979;28;20041;-76
2022/04/18 03:25:33;;;;;;;1.90;0.70;;;;;;;12.56;41.51;101167.34;5008202;28;20077;-77
2022/04/18 03:28:01;;;;;;;1.00;0.50;;;;;;;12.56;42.61;101144.84;5007968;28;20081;-75
2022/04/18 03:30:30;;;;;;;1.95;0.70;;;;;;;12.55;42.23;101155.19;5009209;28;20050;-76
2022/04/18 03:32:59;;;;;;;2.83;1.02;;;;;;;12.52;42.47;101148.19;5011632;28;20064;-75
2022/04/18 03:35:27;;;;;;;2.33;0.90;;;;;;;12.51;43.74;101148.19;5008812;28;20049;-76
2022/04/18 03:40:42;;;;;;;6.60;1.88;;;;;;;12.45;42.77;101122.03;5007971;28;20056;-75
2022/04/18 03:43:11;;;;;;;3.13;1.33;;;;;;;12.43;43.95;101114.19;5008021;28;20058;-75
2022/04/18 03:45:40;;;;;;;1.48;1.17;;;;;;;12.40;44.47;101110.66;4990616;28;20050;-76
2022/04/18 03:48:09;;;;;;;4.50;1.60;;;;;;;12.39;44.09;101106.28;4992192;28;20074;-74
2022/04/18 03:50:37;;;;;;;4.32;1.55;;;;;;;12.33;43.91;101101.81;4991620;28;20130;-75
2022/04/18 03:53:07;;;;;;;3.30;1.40;;;;;;;12.31;44.46;101098.31;4991808;28;20046;-75
2022/04/18 03:55:36;;;;;;;3.95;1.70;;;;;;;12.26;45.60;101090.41;5008503;28;20050;-75
2022/04/18 03:58:04;;;;;;;4.20;1.35;;;;;;;12.21;44.86;101086.81;5011825;28;20104;-77
2022/04/18 04:00:34;;;;;;;2.25;1.30;;;;;;;12.16;44.57;101077.97;5011265;28;20054;-75
2022/04/18 04:03:03;;;;;;;2.40;1.50;;;;;;;12.12;44.92;101076.16;5010931;28;20642;-76
2022/04/18 04:05:32;;;;;;;3.90;1.70;;;;;;;12.09;46.10;101071.75;5011441;28;20443;-75
2022/04/18 04:08:00;;;;;;;6.53;1.48;;;;;;;12.08;45.94;101064.81;5011455;28;20418;-75
2022/04/18 04:10:30;;;;;;;1.58;1.10;;;;;;;12.04;45.83;101060.38;5011524;28;20183;-73
2022/04/18 04:12:59;;;;;;;4.68;1.90;;;;;;;12.00;45.44;101065.41;5011184;28;20423;-74
2022/04/18 04:15:27;;;;;;;2.47;1.65;;;;;;;11.98;47.65;101067.09;5011683;28;20085;-74
2022/04/18 04:17:56;;;;;;;3.17;1.55;;;;;;;11.93;49.36;101080.81;5011968;28;20101;-75
2022/04/18 04:20:24;;;;;;;2.47;1.38;;;;;;;11.88;48.55;101087.56;5012350;28;20054;-74
2022/04/18 04:22:53;;;;;;;4.07;1.42;;;;;;;11.87;48.71;101093.59;5012104;28;20524;-76
2022/04/18 04:25:22;;;;;;;2.80;1.13;;;;;;;11.88;47.40;101102.25;5012857;28;20132;-76
2022/04/18 04:27:52;;;;;;;4.40;0.90;;;;;;;11.87;44.77;101106.56;5012042;28;20111;-77
2022/04/18 04:30:20;;;;;;;2.05;1.30;;;;;;;11.84;45.47;101127.19;5014293;28;20046;-75
2022/04/18 04:32:50;;;;;;;2.13;0.90;;;;;;;11.81;44.91;101127.06;5011837;28;20049;-74
2022/04/18 04:35:19;;;;;;;1.80;1.33;;;;;;;11.80;44.90;101134.84;5011638;28;20103;-74
2022/04/18 04:37:47;;;;;;;3.70;1.20;;;;;;;11.77;44.97;101140.78;5011663;28;20057;-75
2022/04/18 04:40:16;;;;;;;3.47;1.00;;;;;;;11.77;45.25;101155.47;5011461;28;20100;-74
2022/04/18 04:42:44;;;;;;;3.45;1.20;;;;;;;11.69;46.55;101147.44;5010730;28;20569;-74
2022/04/18 04:45:14;;;;;;;3.00;1.33;;;;;;;11.82;46.64;101172.94;5010595;28;20476;-74
2022/04/18 04:47:43;;;;;;;3.90;1.88;;;;;;;11.85;46.57;101179.94;5010813;28;20433;-74
2022/04/18 04:50:12;;;;;;;2.22;1.25;;;;;;;11.85;46.98;101167.84;5011361;28;20056;-74
2022/04/18 04:52:40;;;;;;;3.47;0.98;;;;;;;11.83;45.82;101129.72;5010632;28;20053;-74
2022/04/18 04:55:11;;;;;;;2.88;1.55;;;;;;;11.83;47.46;101098.63;5010760;28;20458;-74
2022/04/18 04:57:40;;;;;;;4.22;1.60;;;;;;;11.76;47.98;101089.78;5009544;28;20112;-73
2022/04/18 05:00:09;;;;;;;1.92;1.35;;;;;;;11.69;47.51;101086.13;5010991;28;20161;-73
2022/04/18 05:02:39;;;;;;;2.35;1.20;;;;;;;11.63;47.58;101087.63;5010618;28;20050;-73
2022/04/18 05:05:08;;;;;;;2.03;1.25;;;;;;;11.63;47.84;101093.69;5011186;28;20116;-74
2022/04/18 05:07:37;;;;;;;2.58;1.05;;;;;;;11.59;47.71;101090.97;5010685;28;20108;-73
2022/04/18 05:10:06;;;;;;;2.10;1.20;;;;;;;11.55;48.51;101091.72;5011464;28;20062;-73
2022/04/18 05:12:35;;;;;;;3.38;1.08;;;;;;;11.53;48.60;101083.91;5011074;28;20052;-73
2022/04/18 05:15:04;;;;;;;3.28;0.98;;;;;;;11.52;48.73;101083.03;5011192;28;20053;-73
2022/04/18 05:17:32;;;;;;;3.00;1.10;;;;;;;11.40;48.96;101068.78;5011194;28;20050;-73
2022/04/18 05:20:11;;;;;;;3.95;0.93;;;;;;;11.34;50.22;101087.63;4993244;28;20499;-73
2022/04/18 05:22:40;;;;;;;1.60;1.15;;;;;;;11.28;50.02;101077.94;5010784;28;20135;-73
2022/04/18 05:25:09;;;;;;;1.80;1.17;;;;;;;11.28;50.94;101072.75;5014336;28;20045;-74
2022/04/18 05:27:38;;;;;;;2.35;0.90;;;;;;;11.30;51.05;101057.28;5012421;28;20547;-73
2022/04/18 05:30:08;;;;;;;2.13;0.77;;;;;;;11.30;50.01;101068.50;5011699;28;20136;-73
2022/04/18 05:32:37;;;;;;;1.63;1.10;;;;;;;11.26;49.97;101074.41;5010454;28;20149;-74
2022/04/18 05:35:06;;;;;;;1.73;0.90;;;;;;;11.24;50.65;101081.25;5010648;28;20073;-73
2022/04/18 05:37:43;;;;;;;2.63;1.10;;;;;;;11.25;51.00;101071.81;5010801;28;20546;-73
2022/04/18 05:40:13;;;;;;;3.45;1.00;;;;;;;11.27;51.62;101067.53;5010702;28;20042;-72
2022/04/18 05:42:41;;;;;;;1.83;0.98;;;;;;;11.29;50.71;101047.72;5009971;28;20108;-71
2022/04/18 05:45:11;;;;;;;3.00;0.80;;;;;;;11.30;50.59;101040.00;5010301;28;20502;-73
2022/04/18 05:47:39;;;;;;;1.70;1.00;;;;;;;11.27;49.69;101044.19;5010153;28;20046;-73
2022/04/18 05:50:09;;;;;;;3.03;1.20;;;;;;;11.22;49.44;101043.19;5009636;28;20049;-74
2022/04/18 05:52:37;;;;;;;5.03;1.02;;;;;;;11.20;50.08;101037.97;5010284;28;20503;-73
2022/04/18 05:55:08;;;;;;;1.48;0.85;;;;;;;11.23;50.61;101038.06;5009423;28;20077;-73
2022/04/18 05:57:37;;;;;;;6.20;1.33;;;;;;;11.25;51.57;101038.13;5010254;28;20108;-73
2022/04/18 06:00:06;;;;;;;1.77;0.80;;;;;;;11.25;50.99;101036.41;5009768;28;20081;-72
2022/04/18 06:02:35;;;;;;;4.88;1.38;;;;;;;11.25;50.93;101035.53;5010216;28;20562;-73
2022/04/18 06:05:03;;;;;;;3.30;1.40;;;;;;;11.25;51.39;101033.81;5010094;28;20089;-73
2022/04/18 06:07:32;;;;;;;3.20;1.52;;;;;;;11.23;51.91;101038.06;5010859;28;20053;-73
2022/04/18 06:10:00;;;;;;;2.42;1.45;;;;;;;11.21;51.91;101033.66;5009068;28;20050;-75
2022/04/18 06:12:30;;;;;;;3.30;1.90;;;;;;;11.18;51.15;101050.00;5010377;28;20084;-73
2022/04/18 06:14:59;;;;;;;4.15;1.85;;;;;;;11.14;51.68;101034.31;5009895;28;20080;-72
2022/04/18 06:17:27;;;;;;;4.35;1.58;;;;;;;11.09;53.95;101035.03;5010178;28;20156;-73
2022/04/18 06:19:56;;;;;;;4.25;1.67;;;;;;;11.07;55.16;101044.47;5010362;28;20057;-73
2022/04/18 06:22:24;;;;;;;2.47;1.20;;;;;;;11.03;52.77;101034.84;5012048;28;20149;-73
2022/04/18 06:24:53;;;;;;;2.97;1.20;;;;;;;11.03;52.38;101029.66;5011233;28;20100;-73
2022/04/18 06:27:21;;;;;;;2.78;1.58;;;;;;;11.02;52.15;101016.69;5009648;28;20096;-75
2022/04/18 06:29:51;;;;;;;7.15;1.38;;;;;;;10.99;51.33;101022.63;5009358;28;20078;-73
2022/04/18 06:32:21;;;;;;;4.20;1.48;;;;;;;10.97;53.39;101026.00;5009917;28;20046;-73
2022/04/18 06:34:49;;;;;;;2.60;1.33;;;;;;;10.94;53.25;101036.25;5009401;28;20622;-73
2022/04/18 06:37:24;;;;;;;6.03;1.40;;;;;;;10.92;52.62;101036.19;5009388;28;20119;-73
2022/04/18 06:39:53;;;;;;;5.90;1.70;;;;;;;10.92;54.39;101032.75;5009450;28;20112;-74
2022/04/18 06:42:21;;;;;;;2.08;1.02;;;;;;;10.88;55.50;101019.69;5008802;28;20135;-73
2022/04/18 06:44:51;;;;;;;3.53;1.20;;;;;;;10.88;56.89;101022.28;5008567;28;20062;-74
2022/04/18 06:47:20;;;;;;;3.40;1.30;;;;;;;10.87;56.53;101017.94;5009301;28;20050;-73
2022/04/18 06:49:49;;;;;;;2.75;1.15;;;;;;;10.87;56.04;101017.06;5008214;28;20157;-72
2022/04/18 06:52:17;;;;;;;5.13;1.10;;;;;;;10.86;52.92;100990.28;5008951;28;20057;-73
2022/04/18 06:54:46;;;;;;;2.40;1.30;;;;;;;10.83;53.33;100994.47;5008999;28;20053;-75
2022/04/18 06:57:13;;;;;;;3.05;1.05;;;;;;;10.81;54.42;100996.13;5011380;28;20496;-73
2022/04/18 06:59:41;;;;;;;4.05;1.70;;;;;;;10.80;54.52;100968.50;5008876;28;20660;-73
2022/04/18 07:02:11;;;;;;;2.33;1.52;;;;;;;10.76;55.17;100992.53;5009031;28;20132;-75
2022/04/18 07:04:40;;;;;;;2.78;1.40;;;;;;;10.74;54.72;100989.88;5009054;28;20142;-74
2022/04/18 07:07:08;;;;;;;2.10;0.90;;;;;;;10.74;56.27;100978.66;5008689;28;20526;-73
2022/04/18 07:09:37;;;;;;;2.22;0.98;;;;;;;10.72;56.95;100976.03;5008954;28;20046;-72
2022/04/18 07:12:06;;;;;;;4.35;1.50;;;;;;;10.72;56.44;100978.63;5008984;28;20042;-73
2022/04/18 07:14:37;;;;;;;3.33;1.20;;;;;;;10.72;55.21;100967.38;5009288;28;20472;-73
2022/04/18 07:17:06;;;;;;;4.28;1.33;;;;;;;10.72;55.70;100985.50;5009024;28;20123;-73
2022/04/18 07:19:36;;;;;;;3.05;1.20;;;;;;;10.57;56.72;100976.41;5013211;28;20053;-72
2022/04/18 07:22:06;;;;;;;7.75;1.90;;;;;;;10.46;56.41;100990.69;5013494;28;20498;-72
2022/04/18 07:24:34;;;;;;;7.05;1.20;;;;;;;10.37;57.56;100986.06;5013083;28;20503;-72
2022/04/18 07:27:03;;;;;;;3.03;1.15;;;;;;;10.37;56.10;100982.63;5013216;28;20081;-72
2022/04/18 07:29:31;;;;;;;2.13;1.55;;;;;;;10.40;56.45;100978.44;5012928;28;20062;-73
2022/04/18 07:32:00;;;;;;;2.35;1.70;;;;;;;10.41;57.23;100974.13;5013049;28;20050;-73
2022/04/18 07:34:29;;;;;;;3.88;1.02;;;;;;;10.43;56.76;100973.34;5012595;28;20126;-73
2022/04/18 07:36:59;;;;;;;2.97;1.25;;;;;;;10.44;58.26;100969.94;5012344;28;20088;-73
2022/04/18 07:39:27;;;;;;;3.15;1.30;;;;;;;10.43;58.75;100963.00;5012902;28;20049;-72
2022/04/18 07:41:56;;;;;;;3.10;1.45;;;;;;;10.44;57.24;100958.72;5012401;28;20104;-72
2022/04/18 07:44:24;;;;;;;3.17;1.50;;;;;;;10.42;57.44;100965.53;5004321;28;20118;-72
2022/04/18 07:46:53;;;;;;;3.33;1.45;;;;;;;10.41;57.27;100959.50;4993207;28;20046;-72
2022/04/18 07:49:21;;;;;;;2.45;1.42;;;;;;;10.38;57.28;100958.53;4994182;28;20113;-72
2022/04/18 07:51:50;;;;;;;7.43;1.45;;;;;;;10.38;57.59;100954.22;4994394;28;20050;-72
2022/04/18 07:54:20;;;;;;;2.50;1.20;;;;;;;10.34;60.63;100942.00;4999257;28;20061;-73
2022/04/18 07:56:49;;;;;;;2.42;1.08;;;;;;;10.34;60.58;100942.00;5011941;28;20053;-73
2022/04/18 07:59:18;;;;;;;6.05;1.48;;;;;;;10.35;58.91;100953.22;5013920;28;20042;-73
2022/04/18 08:01:46;;;;;;;5.18;1.52;;;;;;;10.31;58.84;100949.69;5012123;28;20049;-72
2022/04/18 08:04:15;;;;;;;5.00;2.20;;;;;;;10.29;59.11;100946.16;5012240;28;20053;-73
2022/04/18 08:06:44;;;;;;;3.80;1.48;;;;;;;10.30;59.03;100945.31;5011636;28;20125;-73
2022/04/18 08:09:12;;;;;;;1.75;1.10;;;;;;;10.31;58.72;100938.44;5012367;28;20888;-73
2022/04/18 08:11:43;;;;;;;3.03;1.30;;;;;;;10.30;58.85;100949.63;5012260;28;20089;-73
2022/04/18 08:14:11;;;;;;;4.50;1.55;;;;;;;10.29;57.73;100948.75;5011971;28;20140;-73
2022/04/18 08:16:40;;;;;;;5.68;1.75;;;;;;;10.27;58.90;100935.72;5013770;28;20112;-73
2022/04/18 08:19:08;;;;;;;3.58;1.70;;;;;;;10.24;59.34;100930.44;5014778;28;20450;-73
2022/04/18 08:21:36;;;;;;;5.90;1.10;;;;;;;10.12;65.03;100924.84;5012639;28;20503;-73
2022/04/18 08:24:05;;;;;;;4.43;1.05;;;;;;;10.03;64.59;100927.13;5011603;28;20049;-73
2022/04/18 08:26:34;;;;;;;3.75;1.40;;;;;;;9.96;67.33;100936.38;5011764;28;20081;-73
2022/04/18 08:29:04;;;;;;;3.85;1.20;;;;;;;9.93;65.61;100925.94;5012195;28;20050;-73
2022/04/18 08:31:32;;;;;;;1.92;1.08;;;;;;;9.91;66.35;100919.81;5011484;28;20045;-73
2022/04/18 08:34:01;;;;;;;3.50;1.25;;;;;;;9.94;69.01;100901.84;5012167;28;20081;-73
2022/04/18 08:36:29;;;;;;;2.60;1.38;;;;;;;9.94;66.20;100909.63;5011810;28;20108;-72
2022/04/18 08:38:58;;;;;;;2.75;1.23;;;;;;;9.90;66.02;100896.53;5009636;28;20058;-73
2022/04/18 08:41:35;;;;;;;4.30;1.40;;;;;;;9.82;67.47;100910.03;5010771;28;20147;-73
2022/04/18 08:44:06;;;;;;;2.17;1.27;;;;;;;9.70;68.14;100903.59;5011178;28;20085;-73
2022/04/18 08:46:34;;;;;;;5.72;1.35;;;;;;;9.60;67.79;100897.22;5011039;28;20120;-74
2022/04/18 08:54:35;;;;;;;2.90;1.27;;;;;;;9.54;65.49;100881.50;5011501;28;20056;-73
2022/04/18 08:57:04;;;;;;;5.07;1.10;;;;;;;9.47;67.44;100875.22;5010949;28;20104;-73
2022/04/18 08:59:34;;;;;;;5.65;1.30;;;;;;;9.43;66.67;100876.78;5010944;28;20045;-73
2022/04/18 09:02:03;;;;;;;6.47;1.48;;;;;;;9.44;65.90;100865.66;5010707;28;20045;-73
2022/04/18 09:04:31;;;;;;;2.83;1.48;;;;;;;9.42;66.41;100856.97;5010888;28;20069;-73
2022/04/18 09:07:10;;;;;;;4.07;1.42;;;;;;;9.49;65.21;100864.94;5011178;28;20042;-72
2022/04/18 09:09:39;;;;;;;3.72;1.73;;;;;;;9.50;66.03;100865.00;5011161;28;20052;-73
2022/04/18 09:12:20;;;;;;;2.78;1.27;;;;;;;9.53;66.60;100869.38;5011229;28;20079;-73
2022/04/18 09:14:50;;;;;;;4.50;1.55;;;;;;;9.52;66.43;100867.63;5013222;28;20054;-73
2022/04/18 09:17:30;;;;;;;2.40;1.20;;;;;;;9.52;65.98;100853.00;5012437;28;20068;-73
2022/04/18 09:20:10;;;;;;;4.15;1.52;;;;;;;9.56;66.43;100856.59;5011709;28;20158;-73
2022/04/18 09:22:45;;;;;;;3.78;1.58;;;;;;;9.60;67.04;100848.13;5011866;28;20102;-73
2022/04/18 09:25:18;;;;;;;5.95;1.95;;;;;;;9.62;67.50;100843.88;5011167;28;20569;-72
2022/04/18 09:27:55;;;;;;;2.45;1.40;;;;;;;9.59;66.84;100838.59;5010956;28;20049;-72
2022/04/18 09:30:26;;;;;;;1.80;1.00;;;;;;;9.56;66.27;100828.19;5011265;28;20530;-72
2022/04/18 09:33:01;;;;;;;2.00;1.20;;;;;;;9.64;67.12;100837.06;5004462;28;20046;-72
2022/04/18 09:35:32;;;;;;;2.80;1.25;;;;;;;9.56;66.40;100818.72;4991906;28;20057;-72
2022/04/18 09:38:02;;;;;;;3.25;1.33;;;;;;;9.64;67.41;100824.13;4992933;28;20149;-73
2022/04/18 09:40:33;;;;;;;2.85;1.33;;;;;;;9.64;66.67;100818.97;4990751;28;20448;-73
2022/04/18 09:43:02;;;;;;;3.40;1.30;;;;;;;9.62;66.15;100818.03;4989627;28;20054;-73
2022/04/18 09:45:32;;;;;;;2.72;1.33;;;;;;;9.63;68.76;100817.22;4992075;28;20054;-73
2022/04/18 09:48:01;;;;;;;2.13;1.13;;;;;;;9.62;68.54;100818.03;4990180;28;20156;-73
2022/04/18 09:53:21;;;;;;;2.97;1.65;;;;;;;9.61;67.72;100805.97;4990936;28;20562;-73
2022/04/18 09:55:51;;;;;;;5.05;1.55;;;;;;;9.62;66.31;100811.19;5008945;28;20046;-73
2022/04/18 09:58:20;;;;;;;3.50;1.25;;;;;;;9.57;66.39;100819.59;5010354;28;20141;-73
2022/04/18 10:00:51;;;;;;;2.88;1.20;;;;;;;9.52;66.91;100813.38;5009786;28;20096;-73
2022/04/18 10:03:21;;;;;;;2.00;1.33;;;;;;;9.51;67.54;100798.72;4994415;28;20061;-73
2022/04/18 10:05:51;;;;;;;3.53;1.15;;;;;;;9.51;67.37;100804.78;4990060;28;20089;-73
2022/04/18 10:08:21;;;;;;;3.03;1.27;;;;;;;9.53;68.91;100789.31;4989540;28;20046;-72
2022/04/18 10:10:50;;;;;;;2.60;1.30;;;;;;;9.54;68.13;100789.38;4989806;28;20078;-73
2022/04/18 10:13:20;;;;;;;2.55;1.08;;;;;;;9.47;67.63;100755.53;4992841;28;20173;-73
2022/04/18 10:15:52;;;;;;;3.00;1.40;;;;;;;9.56;66.53;100776.50;4990942;28;20046;-72
2022/04/18 10:18:21;;;;;;;2.53;1.30;;;;;;;9.57;66.42;100780.84;4991085;28;20139;-73
2022/04/18 10:21:08;;;;;;;3.58;1.35;;;;;;;9.55;67.89;100780.81;4989908;28;20054;-73
2022/04/18 10:24:03;;;;;;;4.13;1.55;;;;;;;9.55;67.15;100770.47;4989717;28;20659;-72
2022/04/18 10:27:02;;;;;;;2.85;1.30;;;;;;;9.54;67.28;100762.66;4990435;28;20058;-72
2022/04/18 10:29:34;;;;;;;3.45;1.67;;;;;;;9.54;67.36;100762.66;4990335;28;20046;-72
2022/04/18 10:32:21;;;;;;;2.50;1.27;;;;;;;9.46;68.25;100741.75;4989655;28;20105;-73
2022/04/18 10:34:51;;;;;;;4.18;1.15;;;;;;;9.42;67.78;100733.00;4990019;28;20049;-72
2022/04/18 10:37:24;;;;;;;2.03;1.20;;;;;;;9.47;71.74;100761.56;4990458;28;20077;-73
2022/04/18 10:40:01;;;;;;;3.65;1.40;;;;;;;9.41;70.72;100762.25;4989894;28;20054;-73
2022/04/18 10:42:33;;;;;;;2.65;1.40;;;;;;;9.42;72.06;100752.81;5008609;28;20119;-73
2022/04/18 10:45:13;;;;;;;2.08;1.20;;;;;;;9.41;71.49;100743.28;4989849;28;20046;-73
2022/04/18 10:48:08;;;;;;;3.13;1.52;;;;;;;9.34;70.15;100725.81;5006748;28;20060;-72
2022/04/18 10:50:54;;;;;;;3.92;1.15;;;;;;;9.42;70.07;100737.31;5009346;28;20053;-73
2022/04/18 10:53:38;;;;;;;4.82;1.88;;;;;;;9.42;69.77;100733.00;5008716;28;20064;-73
2022/04/18 10:56:13;;;;;;;3.63;1.50;;;;;;;9.45;68.85;100727.06;4989477;28;20113;-73
2022/04/18 10:58:50;;;;;;;3.63;1.45;;;;;;;9.45;68.86;100721.91;4989165;28;20058;-73
2022/04/18 11:01:19;;;;;;;1.10;0.95;;;;;;;9.46;68.23;100723.69;4989649;28;20480;-74
2022/04/18 11:04:00;;;;;;;4.40;1.15;;;;;;;9.47;69.15;100714.22;4988799;28;20054;-73
2022/04/18 11:06:51;;;;;;;3.17;1.67;;;;;;;9.44;68.96;100700.38;4989413;28;20050;-74
2022/04/18 11:09:22;;;;;;;2.83;1.38;;;;;;;9.43;68.17;100701.19;4989894;28;20082;-73
2022/04/18 11:12:06;;;;;;;4.38;1.23;;;;;;;9.43;68.13;100702.91;4993115;28;20084;-72
2022/04/18 11:14:50;;;;;;;3.28;1.50;;;;;;;9.42;67.79;100701.16;4990175;28;20054;-73
2022/04/18 11:17:28;;;;;;;3.50;1.40;;;;;;;9.41;67.75;100702.88;4990166;28;20508;-72
2022/04/18 11:19:58;;;;;;;4.03;1.52;;;;;;;9.41;67.76;100692.53;4990055;28;20061;-73
2022/04/18 11:22:27;;;;;;;3.53;1.50;;;;;;;9.42;68.53;100685.66;4990236;28;20163;-72
2022/04/18 11:25:03;;;;;;;4.07;1.52;;;;;;;9.42;67.71;100677.91;4990747;28;20074;-72
2022/04/18 11:27:37;;;;;;;4.07;1.50;;;;;;;9.41;67.29;100677.03;4989262;28;20058;-72
2022/04/18 11:30:09;;;;;;;3.15;1.35;;;;;;;9.41;67.49;100674.47;4989725;28;20594;-72
2022/04/18 11:32:39;;;;;;;2.63;1.30;;;;;;;9.40;67.62;100670.09;4989115;28;20129;-72
2022/04/18 11:35:11;;;;;;;7.90;1.35;;;;;;;9.42;68.19;100663.28;4989480;28;20089;-73
2022/04/18 11:37:43;;;;;;;3.35;1.58;;;;;;;9.40;69.69;100654.59;4989321;28;20054;-72
2022/04/18 11:40:12;;;;;;;1.60;1.10;;;;;;;9.36;71.55;100657.03;4989191;28;20488;-72
2022/04/18 11:42:42;;;;;;;2.47;1.25;;;;;;;9.34;71.45;100656.97;4989185;28;20073;-72
2022/04/18 11:45:21;;;;;;;3.35;1.52;;;;;;;9.33;69.79;100650.06;5004633;28;20057;-72
2022/04/18 11:47:50;;;;;;;3.15;1.70;;;;;;;9.32;69.40;100648.34;5008076;28;20132;-72
2022/04/18 11:50:23;;;;;;;2.88;1.52;;;;;;;9.29;68.68;100647.34;5008589;28;20096;-72
2022/04/18 11:53:01;;;;;;;3.63;1.30;;;;;;;9.24;69.12;100649.78;5008003;28;20050;-73
2022/04/18 11:55:29;;;;;;;1.77;1.15;;;;;;;9.23;69.19;100642.84;5008340;28;20049;-73
2022/04/18 11:57:58;;;;;;;2.25;1.45;;;;;;;9.22;69.36;100641.09;5008440;28;20054;-73